EDLN/MGL METAR and TAF weather

Enter ICAO airport designator
Station Type Date Time Source
EDLN METAR 2019/10/21 23:20 UTC NOAA

EDLN 212320Z AUTO 20004KT 140V250 9999 // OVC038/// 13/09 Q1021


Station Type Date Time Source
EDLN Decoded METAR 2019/10/21 23:20 UTC NOAA

Monchengladbach, Germany (EDLN) 51-13-49N 006-30-16E
Oct 21, 2019 - 07:20 PM EDT / 2019.10.21 2320 UTC
Wind: from the SSW (200 degrees) at 5 MPH (4 KT) (direction variable):0
Visibility: greater than 7 mile(s):0
Sky conditions: overcast
Temperature: 55 F (13 C)
Dew Point: 48 F (9 C)
Relative Humidity: 76%
Pressure (altimeter): 30.15 in. Hg (1021 hPa)
ob: EDLN 212320Z AUTO 20004KT 140V250 9999 // OVC038/// 13/09 Q1021
cycle: 23

Station Type Date Time Source
EDLN TAF 2010/02/22 14:20 UTC NOAA

METAR EDLN 221420Z 18010G20KT 090V240 9999 SCT030 BKN045 11/06 Q0986
RMK ATIS R=

Example: see airport list